Terminal Aerodrome Forecast
Issued by NWS Shreveport, LA

Home | Current Version | Previous Version | Text Only | Print | Product List | Glossary On
Versions: 1 2 3 4 5 6 7 8 9 10 11 12 13 14 15 16 17 18 19
000
FTUS44 KSHV 152300 RRA
TAFSHV
TAF
KSHV 152341Z 1600/1624 08006KT P6SM BKN150 OVC250
     FM160300 06003KT P6SM OVC250
     FM161500 05002KT 5SM BR VCSH OVC250
     FM162100 07004KT P6SM VCSH OVC050=

USA.gov is the U.S. government's official web portal to all federal, state and local government web resources and services.